AirNav   Pilot Hours Calculator
 
 1018 users online  

ND26 Gajewski Field Airport
Alexander, North Dakota, USA

GOING TO ALEXANDER?


FAA INFORMATION EFFECTIVE 03 NOVEMBER 2022

Location

FAA Identifier: ND26
Lat/Long: 47-53-58.7400N 103-39-46.3250W
47-53.979000N 103-39.772083W
47.8996500,-103.6628681
(estimated)
Elevation: 2100 ft. / 640 m (estimated)
Variation: 12E (1985)
From city: 3 miles NW of ALEXANDER, ND
Time zone: UTC -6 (UTC -5 during Daylight Saving Time)
Zip code: 58831

Airport Operations

Airport use: Private use. Permission required prior to landing
Activation date: 10/1947
Control tower: no
ARTCC: SALT LAKE CITY CENTER
FSS: GRAND FORKS FLIGHT SERVICE STATION
Attendance: IREG
Wind indicator: yes
Segmented circle: no
Lights: TO ACTVT LIRL RY 18/36 CALL 701-828-3572.
Beacon: white-green (lighted land airport)
TO ACTVT ARPT BCN CALL 701-828-3572.

Airport Communications

WX AWOS-3PT at S25 (18 nm E): 118.125 (701-842-4855)

Nearby radio navigation aids

VOR radial/distance  VOR name  Freq  Var
ISNr163/21.5WILLISTON VOR/DME116.3008E

Airport Services

Fuel available: 100 MOGAS
Airframe service: NONE
Powerplant service: NONE

Runway Information

Runway 17/35

Dimensions: 2162 x 40 ft. / 659 x 12 m
Surface: turf
Runway edge lights: low intensity
RUNWAY 17  RUNWAY 35
Latitude: 47-54.156833N47-53.801167N
Longitude: 103-39.772333W103-39.771833W
Elevation: 2100.0 ft.2100.0 ft.
Traffic pattern: leftleft

Airport Ownership and Management from official FAA records

Ownership: Privately-owned
Owner: MERVIN GAJEWSKI
ALEXANDER, ND 58831
Phone 701-570-0391
Manager: MERVIN GAJEWSKI
ALEXANDER, ND 58831
Phone 701-570-0391

Additional Remarks

EMERGS OR PVT REQ USE ONLY.
FOR CD CTC SALT LAKE ARTCC AT 801-320-2568.

Instrument Procedures

There are no published instrument procedures at ND26.

Some nearby airports with instrument procedures:

S25 - Watford City Municipal Airport (18 nm E)
KXWA - Williston Basin International Airport (22 nm N)
KSDY - Sidney-Richland Regional Airport (24 nm SW)
D60 - Tioga Municipal Airport (42 nm NE)
9Y1 - Dunn County Airport - Weydahl Field (47 nm SE)
 
Loc | Ops | Rwys | IFR | FBO | Links
Com | Nav | Svcs | Stats | Notes

Bismarck Aero Center
AirBoss

 
Area around ND26 (Gajewski Field Airport)
 
Road maps at: MapQuest Bing Google
 
Aerial photo
No photo
 
Sectional chart

 
Airport distance calculator
Flying to Gajewski Field Airport? Find the distance to fly.

From to ND26

Sunrise and sunset
Times for 26-Nov-2022
 Local
(UTC-6)
 Zulu
(UTC)
Morning civil twilight07:4313:43
Sunrise08:1814:18
Sunset17:0623:06
Evening civil twilight17:4123:41

Current date and time
Zulu (UTC)  26-Nov-2022 17:30:46
Local (UTC-6)  26-Nov-2022 11:30:46
 
METAR
KS25 
18nm E 
261715Z AUTO 30009KT 10SM CLR 02/M01 A2998 RMK AO2
KXWA 
22nm N 
261651Z AUTO 31015KT 10SM CLR 01/M03 A2995 RMK AO2 SLP172 T00111028
KSDY 
25nm SW 
261656Z AUTO 32009KT 10SM FEW080 03/M02 A3000 RMK AO2 SLP182 T00331017
TAF
NOTAMs
Click for the latest NOTAMs
NOTAMs are issued by the DoD/FAA and will open in a separate window not controlled by AirNav.

 

 
 

Would you like to see your business listed on this page?

 If your business provides an interesting product or service to pilots, flight crews, aircraft, or users of the Gajewski Field Airport, you should consider listing it here.  To start the listing process, click on the button below
 
Add a business
 

Other Pages about Gajewski Field Airport

Update a link
 
Copyright © AirNav, LLC. All rights reserved. Privacy Policy  Contact